Time;durP1;ratioP1;P1;durP2;ratioP2;P2;SDS_P1;SDS_P2;PMS_P1;PMS_P2;Temp;Humidity;BMP_temperature;BMP_pressure;BME280_temperature;BME280_humidity;BME280_pressure;Samples;Min_cycle;Max_cycle;Signal;HPM_P1;HPM_P2
2023/03/26 00:01:23;;;;;;;0.80;0.70;;;;;;;;;;5033294;28;20848;-75
2023/03/26 00:03:55;;;;;;;3.25;0.57;;;;;;;;;;5031617;28;20426;-75
2023/03/26 00:06:35;;;;;;;0.10;0.10;;;;;;;;;;5013267;28;20607;-75
2023/03/26 00:09:03;;;;;;;0.10;0.10;;;;;;;;;;5013742;28;20432;-75
2023/03/26 00:11:30;;;;;;;0.10;0.10;;;;;;;;;;5032037;28;20438;-75
2023/03/26 00:13:57;;;;;;;0.10;0.10;;;;;;;;;;5032469;28;20429;-75
2023/03/26 00:16:26;;;;;;;0.70;0.22;;;;;;;;;;5030390;28;20462;-75
2023/03/26 00:18:54;;;;;;;0.20;0.20;;;;;;;;;;5033044;28;20426;-76
2023/03/26 00:21:27;;;;;;;0.20;0.20;;;;;;;;;;5031974;28;20434;-75
2023/03/26 00:23:55;;;;;;;0.13;0.13;;;;;;;;;;5031408;28;20518;-76
2023/03/26 00:26:26;;;;;;;0.30;0.30;;;;;;;;;;5032908;28;20431;-75
2023/03/26 00:28:53;;;;;;;0.70;0.20;;;;;;;;;;5032937;28;20470;-75
2023/03/26 00:31:20;;;;;;;0.20;0.20;;;;;;;;;;5021899;28;20447;-75
2023/03/26 00:33:53;;;;;;;0.37;0.37;;;;;;;;;;5032072;28;20462;-75
2023/03/26 00:36:20;;;;;;;0.30;0.30;;;;;;;;;;5031353;28;20438;-75
2023/03/26 00:38:47;;;;;;;0.20;0.20;;;;;;;;;;5032642;28;20489;-75
2023/03/26 00:41:23;;;;;;;0.20;0.20;;;;;;;;;;5029756;28;20435;-75
2023/03/26 00:43:59;;;;;;;0.20;0.20;;;;;;;;;;5031766;28;20510;-76
2023/03/26 00:46:27;;;;;;;0.10;0.10;;;;;;;;;;5032010;28;20427;-76
2023/03/26 00:48:58;;;;;;;0.40;0.40;;;;;;;;;;5031567;28;20441;-76
2023/03/26 00:51:26;;;;;;;0.30;0.20;;;;;;;;;;5032511;28;20449;-75
2023/03/26 00:53:53;;;;;;;0.10;0.10;;;;;;;;;;5032025;28;21029;-75
2023/03/26 00:56:24;;;;;;;0.10;0.10;;;;;;;;;;5032336;28;20566;-76
2023/03/26 00:58:54;;;;;;;0.20;0.20;;;;;;;;;;5032578;28;20431;-73
2023/03/26 01:01:34;;;;;;;0.20;0.20;;;;;;;;;;5032117;28;20431;-75
2023/03/26 01:04:26;;;;;;;0.22;0.22;;;;;;;;;;5030097;28;20458;-74
2023/03/26 01:06:54;;;;;;;0.25;0.25;;;;;;;;;;5029087;28;20462;-75
2023/03/26 01:09:32;;;;;;;1.90;0.30;;;;;;;;;;5031589;28;21115;-75
2023/03/26 01:12:00;;;;;;;0.13;0.13;;;;;;;;;;5030783;28;20928;-75
2023/03/26 01:14:28;;;;;;;0.10;0.10;;;;;;;;;;5031444;28;20936;-74
2023/03/26 01:16:57;;;;;;;0.27;0.27;;;;;;;;;;5031640;28;20490;-74
2023/03/26 01:19:43;;;;;;;0.80;0.40;;;;;;;;;;5031522;28;20837;-74
2023/03/26 01:22:13;;;;;;;0.25;0.25;;;;;;;;;;5031660;28;20506;-74
2023/03/26 01:24:45;;;;;;;0.20;0.20;;;;;;;;;;5029680;28;20496;-74
2023/03/26 01:27:12;;;;;;;0.20;0.20;;;;;;;;;;5031295;28;20961;-74
2023/03/26 01:29:47;;;;;;;3.20;0.30;;;;;;;;;;5028853;28;20969;-74
2023/03/26 01:32:18;;;;;;;0.30;0.30;;;;;;;;;;5030283;28;20431;-74
2023/03/26 01:34:51;;;;;;;1.00;0.60;;;;;;;;;;5031009;28;20438;-75
2023/03/26 01:37:21;;;;;;;0.30;0.30;;;;;;;;;;5030477;28;20439;-74
2023/03/26 01:39:56;;;;;;;0.20;0.20;;;;;;;;;;5012562;28;20444;-74
2023/03/26 01:42:30;;;;;;;0.25;0.25;;;;;;;;;;5011305;28;20417;-73
2023/03/26 01:45:00;;;;;;;0.28;0.28;;;;;;;;;;5022456;28;20450;-74
2023/03/26 01:47:28;;;;;;;0.13;0.13;;;;;;;;;;5031282;28;20842;-74
2023/03/26 01:49:55;;;;;;;0.10;0.10;;;;;;;;;;5031159;28;20538;-74
2023/03/26 01:52:24;;;;;;;0.40;0.30;;;;;;;;;;5035663;28;20415;-74
2023/03/26 01:54:53;;;;;;;0.20;0.20;;;;;;;;;;5031897;28;20527;-74
2023/03/26 01:57:38;;;;;;;0.47;0.40;;;;;;;;;;5030827;28;20434;-74
2023/03/26 02:00:11;;;;;;;0.25;0.25;;;;;;;;;;5030834;28;20822;-74
2023/03/26 02:02:48;;;;;;;0.30;0.30;;;;;;;;;;5028190;28;20502;-74
2023/03/26 02:05:22;;;;;;;0.20;0.20;;;;;;;;;;5029813;28;20427;-74
2023/03/26 02:08:08;;;;;;;0.13;0.13;;;;;;;;;;5030719;28;20462;-74
2023/03/26 02:10:38;;;;;;;0.60;0.60;;;;;;;;;;5030635;28;20434;-74
2023/03/26 02:13:06;;;;;;;0.20;0.20;;;;;;;;;;5028951;28;20531;-74
2023/03/26 02:15:42;;;;;;;0.68;0.38;;;;;;;;;;5029861;28;20894;-74
2023/03/26 02:18:12;;;;;;;0.75;0.28;;;;;;;;;;5028989;28;20809;-74
2023/03/26 02:20:45;;;;;;;0.10;0.10;;;;;;;;;;5029974;28;20437;-74
2023/03/26 02:23:12;;;;;;;0.20;0.20;;;;;;;;;;5030691;28;20423;-74
2023/03/26 02:25:42;;;;;;;0.10;0.10;;;;;;;;;;5029991;28;20434;-74
2023/03/26 02:28:09;;;;;;;0.60;0.30;;;;;;;;;;5029052;28;20541;-74
2023/03/26 02:30:37;;;;;;;0.10;0.10;;;;;;;;;;5030601;28;20454;-74
2023/03/26 02:33:06;;;;;;;0.28;0.28;;;;;;;;;;5030393;28;20434;-74
2023/03/26 02:35:34;;;;;;;0.30;0.30;;;;;;;;;;5028409;28;20431;-74
2023/03/26 02:38:01;;;;;;;0.10;0.10;;;;;;;;;;5029909;28;20518;-74
2023/03/26 02:40:28;;;;;;;0.20;0.20;;;;;;;;;;5029908;28;20431;-75
2023/03/26 02:42:59;;;;;;;0.70;0.60;;;;;;;;;;5028812;28;20426;-74
2023/03/26 02:45:26;;;;;;;0.30;0.30;;;;;;;;;;5029244;28;20431;-74
2023/03/26 02:47:53;;;;;;;0.80;0.43;;;;;;;;;;5028398;28;20433;-74
2023/03/26 02:50:21;;;;;;;0.20;0.20;;;;;;;;;;5030015;28;20489;-74
2023/03/26 02:52:48;;;;;;;0.20;0.20;;;;;;;;;;5030039;28;20430;-74
2023/03/26 02:55:15;;;;;;;0.50;0.50;;;;;;;;;;5029520;28;20929;-74
2023/03/26 02:57:43;;;;;;;3.80;0.20;;;;;;;;;;5029948;28;20430;-74
2023/03/26 03:00:13;;;;;;;3.40;0.40;;;;;;;;;;5028577;28;20896;-74
2023/03/26 03:02:43;;;;;;;0.20;0.20;;;;;;;;;;5030163;28;20423;-75
2023/03/26 03:05:10;;;;;;;1.00;0.60;;;;;;;;;;5028393;28;20492;-75
2023/03/26 03:07:38;;;;;;;0.40;0.40;;;;;;;;;;5030164;28;20477;-75
2023/03/26 03:10:07;;;;;;;0.60;0.50;;;;;;;;;;5028764;28;20430;-75
2023/03/26 03:12:34;;;;;;;0.30;0.30;;;;;;;;;;5030348;28;20458;-74
2023/03/26 03:15:04;;;;;;;0.20;0.20;;;;;;;;;;5028656;28;20517;-75
2023/03/26 03:17:31;;;;;;;1.40;0.50;;;;;;;;;;5029076;28;21045;-75
2023/03/26 03:19:58;;;;;;;0.20;0.20;;;;;;;;;;5029965;28;20954;-74
2023/03/26 03:22:25;;;;;;;0.20;0.20;;;;;;;;;;5030095;28;20435;-74
2023/03/26 03:24:56;;;;;;;0.90;0.50;;;;;;;;;;5029783;28;20505;-75
2023/03/26 03:27:25;;;;;;;0.13;0.13;;;;;;;;;;5027770;28;20522;-75
2023/03/26 03:29:54;;;;;;;0.77;0.77;;;;;;;;;;5022822;28;20456;-74
2023/03/26 03:32:22;;;;;;;0.40;0.40;;;;;;;;;;5028734;28;20438;-74
2023/03/26 03:34:49;;;;;;;0.60;0.50;;;;;;;;;;5029185;28;20450;-74
2023/03/26 03:37:17;;;;;;;0.90;0.40;;;;;;;;;;5027436;28;20438;-74
2023/03/26 03:39:45;;;;;;;1.60;0.17;;;;;;;;;;5029717;28;20442;-74
2023/03/26 03:42:12;;;;;;;0.30;0.30;;;;;;;;;;5029731;28;20441;-74
2023/03/26 03:44:39;;;;;;;2.00;0.73;;;;;;;;;;5028763;28;20848;-74
2023/03/26 03:47:09;;;;;;;1.90;0.20;;;;;;;;;;5029528;28;20500;-74
2023/03/26 03:49:36;;;;;;;0.80;0.38;;;;;;;;;;5028471;28;20867;-74
2023/03/26 03:52:03;;;;;;;3.65;0.30;;;;;;;;;;5029575;28;20427;-74
2023/03/26 03:54:30;;;;;;;1.80;0.50;;;;;;;;;;5027174;28;20427;-74
2023/03/26 03:56:57;;;;;;;0.30;0.30;;;;;;;;;;5029666;28;20438;-74
2023/03/26 03:59:25;;;;;;;0.40;0.40;;;;;;;;;;5028050;28;20522;-74
2023/03/26 04:01:58;;;;;;;0.15;0.15;;;;;;;;;;5028811;28;20435;-74
2023/03/26 04:04:25;;;;;;;0.30;0.30;;;;;;;;;;5028826;28;20478;-74
2023/03/26 04:06:52;;;;;;;1.83;0.50;;;;;;;;;;5027556;28;20461;-74
2023/03/26 04:09:19;;;;;;;0.30;0.30;;;;;;;;;;5029159;28;20438;-74
2023/03/26 04:11:46;;;;;;;0.40;0.40;;;;;;;;;;5029327;28;20465;-74
2023/03/26 04:14:13;;;;;;;3.30;0.40;;;;;;;;;;5026985;28;20435;-74
2023/03/26 04:16:41;;;;;;;0.50;0.50;;;;;;;;;;5033668;28;20483;-74
2023/03/26 04:19:08;;;;;;;0.50;0.43;;;;;;;;;;5029242;28;20518;-74
2023/03/26 04:21:41;;;;;;;0.10;0.10;;;;;;;;;;5031600;28;20434;-74
2023/03/26 04:24:09;;;;;;;0.20;0.20;;;;;;;;;;5031179;28;20443;-74
2023/03/26 04:26:36;;;;;;;0.40;0.40;;;;;;;;;;5032423;28;20965;-74
2023/03/26 04:29:10;;;;;;;0.80;0.32;;;;;;;;;;5018415;28;20495;-74
2023/03/26 04:31:37;;;;;;;0.20;0.20;;;;;;;;;;5014439;28;20431;-74
2023/03/26 04:34:22;;;;;;;1.90;0.40;;;;;;;;;;5032238;28;20526;-74
2023/03/26 04:36:53;;;;;;;0.55;0.35;;;;;;;;;;5032663;28;20430;-74
2023/03/26 04:39:32;;;;;;;0.70;0.30;;;;;;;;;;5030909;28;20442;-74
2023/03/26 04:42:00;;;;;;;0.40;0.40;;;;;;;;;;5032543;28;20515;-74
2023/03/26 04:44:30;;;;;;;0.20;0.20;;;;;;;;;;5031975;28;20433;-74
2023/03/26 04:46:57;;;;;;;0.20;0.20;;;;;;;;;;5032641;28;20433;-74
2023/03/26 04:49:27;;;;;;;0.40;0.40;;;;;;;;;;5032254;28;20438;-74
2023/03/26 04:51:55;;;;;;;0.30;0.30;;;;;;;;;;5030570;28;20435;-74
2023/03/26 04:54:23;;;;;;;0.22;0.22;;;;;;;;;;5031931;28;20434;-75
2023/03/26 04:56:52;;;;;;;0.03;0.03;;;;;;;;;;5032267;28;20550;-74
2023/03/26 04:59:24;;;;;;;0.40;0.30;;;;;;;;;;5031731;28;20435;-74
2023/03/26 05:01:56;;;;;;;0.60;0.60;;;;;;;;;;5032354;28;20431;-75
2023/03/26 05:04:25;;;;;;;2.40;0.73;;;;;;;;;;5031569;28;20438;-75
2023/03/26 05:06:52;;;;;;;0.10;0.10;;;;;;;;;;5031195;28;20427;-74
2023/03/26 05:09:20;;;;;;;0.10;0.10;;;;;;;;;;5030791;28;20431;-74
2023/03/26 05:11:47;;;;;;;0.30;0.30;;;;;;;;;;5032168;28;20431;-74
2023/03/26 05:14:14;;;;;;;0.35;0.30;;;;;;;;;;5030013;28;20442;-74
2023/03/26 05:16:45;;;;;;;0.10;0.10;;;;;;;;;;5030809;28;21103;-75
2023/03/26 05:19:12;;;;;;;0.40;0.40;;;;;;;;;;5032019;28;20434;-74
2023/03/26 05:21:40;;;;;;;3.38;0.30;;;;;;;;;;5030177;28;21007;-75
2023/03/26 05:24:10;;;;;;;1.10;1.00;;;;;;;;;;5031516;28;20456;-73
2023/03/26 05:26:37;;;;;;;0.30;0.30;;;;;;;;;;5030093;28;20479;-73
2023/03/26 05:29:04;;;;;;;0.20;0.20;;;;;;;;;;5032010;28;20441;-74
2023/03/26 05:31:31;;;;;;;0.25;0.25;;;;;;;;;;5031487;28;20437;-73
2023/03/26 05:34:02;;;;;;;0.20;0.20;;;;;;;;;;5030197;28;20517;-74
2023/03/26 05:36:29;;;;;;;0.55;0.25;;;;;;;;;;5032089;28;20434;-73
2023/03/26 05:39:00;;;;;;;0.35;0.35;;;;;;;;;;5032177;28;20840;-73
2023/03/26 05:41:27;;;;;;;0.10;0.10;;;;;;;;;;5031900;28;20468;-73
2023/03/26 05:43:54;;;;;;;0.30;0.30;;;;;;;;;;5031804;28;20437;-72
2023/03/26 05:46:22;;;;;;;2.00;0.60;;;;;;;;;;5032384;28;20521;-72
2023/03/26 05:48:50;;;;;;;0.20;0.20;;;;;;;;;;5032470;28;20435;-73
2023/03/26 05:51:24;;;;;;;1.08;0.40;;;;;;;;;;5032347;28;20898;-73
2023/03/26 05:53:51;;;;;;;0.17;0.17;;;;;;;;;;5031689;28;20454;-72
2023/03/26 05:56:18;;;;;;;0.35;0.35;;;;;;;;;;5029869;28;20498;-72
2023/03/26 05:58:46;;;;;;;0.43;0.43;;;;;;;;;;5030430;28;20502;-72
2023/03/26 06:01:17;;;;;;;0.10;0.10;;;;;;;;;;5031768;28;20461;-72
2023/03/26 06:03:47;;;;;;;0.28;0.28;;;;;;;;;;5031010;28;20430;-71
2023/03/26 06:06:17;;;;;;;1.80;0.60;;;;;;;;;;5031084;28;20477;-72
2023/03/26 06:08:48;;;;;;;3.20;0.70;;;;;;;;;;5029135;28;20427;-72
2023/03/26 06:11:29;;;;;;;0.23;0.17;;;;;;;;;;5030984;28;20578;-72
2023/03/26 06:13:56;;;;;;;1.13;0.63;;;;;;;;;;5029263;28;20443;-71
2023/03/26 06:16:26;;;;;;;0.20;0.20;;;;;;;;;;5030995;28;20431;-72
2023/03/26 06:18:55;;;;;;;0.30;0.30;;;;;;;;;;5030377;28;20514;-72
2023/03/26 06:21:24;;;;;;;0.20;0.20;;;;;;;;;;5029397;28;20422;-72
2023/03/26 06:23:51;;;;;;;0.00;0.00;;;;;;;;;;5029804;28;20438;-72
2023/03/26 06:26:18;;;;;;;0.10;0.10;;;;;;;;;;5031077;28;20427;-72
2023/03/26 06:28:45;;;;;;;0.10;0.10;;;;;;;;;;5024965;28;20567;-73
2023/03/26 06:31:12;;;;;;;0.35;0.32;;;;;;;;;;5010933;28;20792;-72
2023/03/26 06:33:40;;;;;;;0.10;0.10;;;;;;;;;;5011895;28;20875;-72
2023/03/26 06:36:07;;;;;;;0.75;0.60;;;;;;;;;;5030122;28;20431;-71
2023/03/26 06:38:36;;;;;;;0.60;0.22;;;;;;;;;;5030428;28;20629;-71
2023/03/26 06:41:05;;;;;;;2.92;1.10;;;;;;;;;;5030336;28;20828;-71
2023/03/26 06:43:35;;;;;;;0.45;0.35;;;;;;;;;;5026280;28;20427;-71
2023/03/26 06:46:02;;;;;;;0.30;0.30;;;;;;;;;;5029777;28;20897;-71
2023/03/26 06:48:29;;;;;;;1.40;0.30;;;;;;;;;;5029901;28;20482;-71
2023/03/26 06:50:57;;;;;;;0.20;0.20;;;;;;;;;;5029136;28;20493;-71
2023/03/26 06:53:24;;;;;;;0.10;0.10;;;;;;;;;;5028792;28;20430;-71
2023/03/26 06:55:55;;;;;;;0.60;0.20;;;;;;;;;;5029613;28;20435;-71
2023/03/26 06:58:22;;;;;;;0.10;0.10;;;;;;;;;;5029928;28;20509;-71
2023/03/26 07:00:55;;;;;;;0.60;0.35;;;;;;;;;;5027774;28;20439;-70
2023/03/26 07:03:23;;;;;;;0.10;0.10;;;;;;;;;;5029969;28;20463;-71
2023/03/26 07:05:50;;;;;;;0.10;0.10;;;;;;;;;;5029615;28;20450;-71
2023/03/26 07:08:20;;;;;;;0.40;0.30;;;;;;;;;;5027646;28;20426;-70
2023/03/26 07:10:47;;;;;;;0.20;0.20;;;;;;;;;;5029589;28;20431;-70
2023/03/26 07:13:14;;;;;;;0.40;0.25;;;;;;;;;;5029510;28;20469;-70
2023/03/26 07:15:41;;;;;;;0.30;0.30;;;;;;;;;;5026459;28;20446;-70
2023/03/26 07:18:11;;;;;;;0.45;0.45;;;;;;;;;;5028668;28;21078;-70
2023/03/26 07:20:39;;;;;;;1.08;0.32;;;;;;;;;;5028802;28;20441;-70
2023/03/26 07:23:06;;;;;;;1.13;0.37;;;;;;;;;;5029080;28;21016;-70
2023/03/26 07:25:33;;;;;;;0.30;0.30;;;;;;;;;;5028718;28;20506;-70
2023/03/26 07:28:13;;;;;;;0.30;0.30;;;;;;;;;;5029225;28;20433;-70
2023/03/26 07:30:59;;;;;;;1.83;0.87;;;;;;;;;;5029443;28;21036;-70
2023/03/26 07:33:48;;;;;;;1.25;0.25;;;;;;;;;;5025823;28;20450;-70
2023/03/26 07:36:35;;;;;;;0.22;0.22;;;;;;;;;;5027992;28;21133;-70
2023/03/26 07:39:21;;;;;;;1.00;0.30;;;;;;;;;;5027971;28;20431;-70
2023/03/26 07:42:21;;;;;;;0.10;0.10;;;;;;;;;;5023464;28;20453;-70
2023/03/26 07:44:55;;;;;;;0.10;0.10;;;;;;;;;;5048325;28;20488;-70
2023/03/26 07:47:34;;;;;;;4.60;0.30;;;;;;;;;;5028415;28;20512;-69
2023/03/26 07:50:02;;;;;;;0.05;0.05;;;;;;;;;;5008967;28;20506;-70
2023/03/26 07:52:29;;;;;;;1.00;0.40;;;;;;;;;;5009451;28;20433;-70
2023/03/26 07:54:59;;;;;;;0.30;0.30;;;;;;;;;;5017617;28;20446;-70
2023/03/26 07:57:35;;;;;;;2.80;0.70;;;;;;;;;;5031626;28;20434;-70
2023/03/26 08:00:09;;;;;;;0.20;0.20;;;;;;;;;;5030417;28;20466;-70
2023/03/26 08:02:56;;;;;;;0.20;0.20;;;;;;;;;;5033223;28;20426;-70
2023/03/26 08:05:28;;;;;;;0.73;0.20;;;;;;;;;;5030617;28;20495;-70
2023/03/26 08:08:10;;;;;;;0.10;0.10;;;;;;;;;;5033007;28;20422;-70
2023/03/26 08:10:52;;;;;;;0.20;0.20;;;;;;;;;;5033073;28;20426;-70
2023/03/26 08:13:43;;;;;;;3.30;0.17;;;;;;;;;;5031452;28;20450;-71
2023/03/26 08:16:46;;;;;;;0.20;0.20;;;;;;;;;;5032684;28;20526;-71
2023/03/26 08:19:36;;;;;;;0.30;0.30;;;;;;;;;;5028567;28;20868;-71
2023/03/26 08:22:26;;;;;;;0.17;0.17;;;;;;;;;;5029688;28;20458;-71
2023/03/26 08:25:05;;;;;;;1.60;0.65;;;;;;;;;;5029825;28;20546;-71
2023/03/26 08:27:37;;;;;;;0.20;0.20;;;;;;;;;;5028135;28;20601;-71
2023/03/26 08:30:18;;;;;;;0.30;0.30;;;;;;;;;;5010424;28;20959;-71
2023/03/26 08:32:55;;;;;;;0.68;0.08;;;;;;;;;;5009929;28;20454;-71
2023/03/26 08:35:25;;;;;;;0.70;0.30;;;;;;;;;;5025235;28;20429;-71
2023/03/26 08:37:53;;;;;;;0.10;0.10;;;;;;;;;;5029690;28;21026;-71
2023/03/26 08:40:38;;;;;;;0.20;0.20;;;;;;;;;;5028184;28;20429;-71
2023/03/26 08:43:05;;;;;;;1.00;0.30;;;;;;;;;;5028797;28;20501;-71
2023/03/26 08:45:50;;;;;;;1.50;0.50;;;;;;;;;;5029476;28;20433;-71
2023/03/26 08:48:55;;;;;;;1.10;1.00;;;;;;;;;;5009868;28;20449;-71
2023/03/26 08:51:33;;;;;;;1.20;1.20;;;;;;;;;;4990378;28;20533;-71
2023/03/26 08:54:19;;;;;;;0.10;0.10;;;;;;;;;;5005551;28;20439;-70
2023/03/26 08:57:07;;;;;;;1.85;0.32;;;;;;;;;;5009600;28;20429;-69
2023/03/26 08:59:53;;;;;;;1.20;0.60;;;;;;;;;;4970266;28;20440;-70
2023/03/26 09:02:20;;;;;;;4.70;0.30;;;;;;;;;;4970531;28;20428;-69
2023/03/26 09:05:14;;;;;;;0.10;0.10;;;;;;;;;;4970414;28;20438;-69
2023/03/26 09:07:41;;;;;;;0.32;0.32;;;;;;;;;;4984045;28;20437;-70
2023/03/26 09:10:26;;;;;;;1.00;0.20;;;;;;;;;;4989541;28;20917;-70
2023/03/26 09:13:16;;;;;;;0.30;0.30;;;;;;;;;;4989541;28;20975;-69
2023/03/26 09:15:55;;;;;;;0.20;0.20;;;;;;;;;;4989037;28;20442;-69
2023/03/26 09:18:44;;;;;;;12.35;0.77;;;;;;;;;;4989383;28;20797;-69
2023/03/26 09:21:30;;;;;;;0.50;0.40;;;;;;;;;;4992488;28;20434;-69
2023/03/26 09:24:26;;;;;;;0.40;0.40;;;;;;;;;;5029255;28;20438;-69
2023/03/26 09:26:59;;;;;;;3.20;0.60;;;;;;;;;;5030002;28;20433;-69
2023/03/26 09:29:45;;;;;;;0.30;0.20;;;;;;;;;;5031524;28;20431;-70
2023/03/26 09:32:20;;;;;;;0.25;0.25;;;;;;;;;;5031518;28;20526;-71
2023/03/26 09:35:06;;;;;;;1.90;0.30;;;;;;;;;;5029890;28;21013;-70
2023/03/26 09:37:40;;;;;;;0.50;0.43;;;;;;;;;;5031125;28;20910;-70
2023/03/26 09:40:31;;;;;;;0.20;0.20;;;;;;;;;;5029372;28;20534;-70
2023/03/26 09:43:10;;;;;;;0.10;0.10;;;;;;;;;;5031391;28;20431;-70
2023/03/26 09:45:43;;;;;;;0.20;0.20;;;;;;;;;;5028786;28;20442;-70
2023/03/26 09:48:17;;;;;;;0.20;0.20;;;;;;;;;;5031410;28;20422;-70
2023/03/26 09:50:58;;;;;;;0.25;0.25;;;;;;;;;;5031048;28;20435;-70
2023/03/26 09:53:33;;;;;;;0.20;0.20;;;;;;;;;;5031123;28;20514;-69
2023/03/26 09:56:15;;;;;;;0.40;0.20;;;;;;;;;;5028712;28;20438;-69
2023/03/26 09:58:52;;;;;;;0.10;0.10;;;;;;;;;;5030725;28;20529;-69
2023/03/26 10:01:23;;;;;;;0.67;0.47;;;;;;;;;;5029186;28;20933;-69
2023/03/26 10:04:12;;;;;;;0.10;0.10;;;;;;;;;;5027054;28;20430;-69
2023/03/26 10:06:44;;;;;;;3.40;0.28;;;;;;;;;;5030530;28;21171;-69
2023/03/26 10:09:30;;;;;;;0.20;0.20;;;;;;;;;;5030730;28;20426;-69
2023/03/26 10:12:04;;;;;;;0.80;0.40;;;;;;;;;;5028486;28;20430;-68
2023/03/26 10:14:48;;;;;;;0.40;0.40;;;;;;;;;;5027824;28;20603;-69
2023/03/26 10:17:18;;;;;;;1.00;0.60;;;;;;;;;;5030484;28;20529;-69
2023/03/26 10:20:08;;;;;;;0.50;0.50;;;;;;;;;;5029579;28;20510;-68
2023/03/26 10:22:44;;;;;;;0.20;0.20;;;;;;;;;;5028746;28;21132;-68
2023/03/26 10:25:17;;;;;;;0.30;0.30;;;;;;;;;;5029731;28;20430;-68
2023/03/26 10:27:48;;;;;;;0.50;0.50;;;;;;;;;;5028375;28;21094;-68
2023/03/26 10:30:21;;;;;;;0.10;0.10;;;;;;;;;;5029523;28;20430;-68
2023/03/26 10:33:02;;;;;;;0.90;0.30;;;;;;;;;;5030336;28;20500;-68
2023/03/26 10:35:48;;;;;;;0.30;0.30;;;;;;;;;;5027760;28;20513;-68
2023/03/26 10:38:18;;;;;;;0.40;0.40;;;;;;;;;;5030176;28;20435;-68
2023/03/26 10:41:04;;;;;;;0.28;0.28;;;;;;;;;;5027531;28;20431;-68
2023/03/26 10:43:50;;;;;;;0.20;0.20;;;;;;;;;;5028133;28;20445;-68
2023/03/26 10:46:52;;;;;;;0.30;0.30;;;;;;;;;;5030158;28;20959;-68
2023/03/26 10:49:40;;;;;;;0.40;0.40;;;;;;;;;;5030200;28;20438;-68
2023/03/26 10:52:11;;;;;;;0.25;0.25;;;;;;;;;;5029861;28;20899;-68
2023/03/26 10:54:41;;;;;;;0.40;0.25;;;;;;;;;;5029550;28;20478;-68
2023/03/26 10:57:20;;;;;;;1.50;0.50;;;;;;;;;;5027479;28;21021;-68
2023/03/26 10:59:47;;;;;;;0.30;0.30;;;;;;;;;;5022323;28;20430;-68
2023/03/26 11:02:14;;;;;;;0.80;0.60;;;;;;;;;;5028594;28;20430;-68
2023/03/26 11:04:49;;;;;;;0.20;0.20;;;;;;;;;;5026248;28;20936;-68
2023/03/26 11:07:22;;;;;;;0.20;0.20;;;;;;;;;;5028604;28;20465;-68
2023/03/26 11:09:57;;;;;;;0.15;0.15;;;;;;;;;;5028814;28;20786;-68
2023/03/26 11:12:43;;;;;;;0.20;0.20;;;;;;;;;;5028626;28;20487;-68
2023/03/26 11:15:16;;;;;;;5.90;0.60;;;;;;;;;;5028121;28;20441;-68
2023/03/26 11:18:01;;;;;;;0.20;0.20;;;;;;;;;;5026695;28;20466;-68
2023/03/26 11:20:36;;;;;;;7.75;0.55;;;;;;;;;;5028824;28;20461;-68
2023/03/26 11:23:12;;;;;;;0.37;0.23;;;;;;;;;;5028640;28;20433;-69
2023/03/26 11:25:39;;;;;;;0.20;0.20;;;;;;;;;;5028680;28;20443;-70
2023/03/26 11:28:15;;;;;;;0.10;0.10;;;;;;;;;;5029519;28;20430;-72
2023/03/26 11:30:53;;;;;;;0.20;0.20;;;;;;;;;;5029121;28;20435;-72
2023/03/26 11:33:24;;;;;;;0.30;0.30;;;;;;;;;;5027157;28;20443;-71
2023/03/26 11:35:56;;;;;;;0.40;0.30;;;;;;;;;;5027949;28;20473;-71
2023/03/26 11:38:32;;;;;;;0.10;0.10;;;;;;;;;;5026486;28;20961;-71
2023/03/26 11:41:00;;;;;;;0.20;0.20;;;;;;;;;;5028559;28;20435;-70
2023/03/26 11:43:31;;;;;;;0.20;0.20;;;;;;;;;;5028878;28;20463;-70
2023/03/26 11:45:59;;;;;;;0.25;0.25;;;;;;;;;;5026539;28;20435;-70
2023/03/26 11:48:45;;;;;;;0.38;0.32;;;;;;;;;;5028816;28;20480;-70
2023/03/26 11:51:12;;;;;;;0.20;0.20;;;;;;;;;;5027417;28;20438;-70
2023/03/26 11:53:39;;;;;;;0.30;0.25;;;;;;;;;;5028727;28;20426;-70
2023/03/26 11:56:13;;;;;;;0.10;0.10;;;;;;;;;;5028023;28;20435;-69
2023/03/26 11:58:53;;;;;;;0.30;0.30;;;;;;;;;;5028446;28;20431;-69
2023/03/26 12:01:40;;;;;;;0.63;0.17;;;;;;;;;;5028373;28;20957;-68
2023/03/26 12:04:15;;;;;;;0.20;0.20;;;;;;;;;;5025435;28;20508;-68
2023/03/26 12:06:51;;;;;;;0.30;0.30;;;;;;;;;;5027491;28;20514;-68
2023/03/26 12:09:19;;;;;;;0.20;0.20;;;;;;;;;;5029690;28;20426;-68
2023/03/26 12:11:48;;;;;;;3.30;0.20;;;;;;;;;;5028190;28;20470;-68
2023/03/26 12:14:20;;;;;;;0.40;0.30;;;;;;;;;;5029041;28;20427;-68
2023/03/26 12:17:07;;;;;;;0.10;0.10;;;;;;;;;;5029818;28;20441;-68
2023/03/26 12:19:44;;;;;;;0.10;0.10;;;;;;;;;;5027480;28;20598;-68
2023/03/26 12:22:29;;;;;;;0.10;0.10;;;;;;;;;;5027539;28;20458;-68
2023/03/26 12:25:01;;;;;;;0.17;0.17;;;;;;;;;;5028944;28;20430;-67
2023/03/26 12:27:29;;;;;;;0.10;0.10;;;;;;;;;;5028886;28;20478;-68
2023/03/26 12:30:09;;;;;;;0.20;0.20;;;;;;;;;;5029027;28;20466;-69
2023/03/26 12:32:41;;;;;;;1.30;0.20;;;;;;;;;;5027294;28;20431;-68
2023/03/26 12:35:24;;;;;;;0.20;0.20;;;;;;;;;;5028577;28;20435;-68
2023/03/26 12:38:26;;;;;;;0.20;0.20;;;;;;;;;;5016488;28;20431;-68
2023/03/26 12:41:03;;;;;;;1.50;0.50;;;;;;;;;;5027781;28;20439;-68
2023/03/26 12:43:39;;;;;;;0.20;0.20;;;;;;;;;;5029864;28;20793;-69
2023/03/26 12:46:30;;;;;;;0.20;0.20;;;;;;;;;;5032676;28;20518;-68
2023/03/26 12:49:18;;;;;;;0.20;0.20;;;;;;;;;;5030306;28;20426;-68
2023/03/26 12:51:51;;;;;;;0.20;0.20;;;;;;;;;;5032555;28;20485;-68
2023/03/26 12:54:37;;;;;;;0.20;0.20;;;;;;;;;;5029992;28;20433;-68
2023/03/26 12:57:15;;;;;;;0.60;0.10;;;;;;;;;;5032136;28;20890;-68
2023/03/26 13:00:05;;;;;;;0.30;0.30;;;;;;;;;;5030696;28;20438;-68
2023/03/26 13:02:36;;;;;;;0.20;0.20;;;;;;;;;;5031896;28;20434;-68
2023/03/26 13:05:03;;;;;;;0.20;0.20;;;;;;;;;;5031893;28;20488;-68
2023/03/26 13:07:46;;;;;;;0.28;0.28;;;;;;;;;;5029374;28;20446;-68
2023/03/26 13:10:31;;;;;;;0.17;0.17;;;;;;;;;;5032369;28;20430;-68
2023/03/26 13:13:08;;;;;;;0.10;0.10;;;;;;;;;;5032053;28;20434;-68
2023/03/26 13:15:37;;;;;;;0.10;0.10;;;;;;;;;;5031460;28;20474;-68
2023/03/26 13:18:08;;;;;;;0.30;0.30;;;;;;;;;;5031148;28;20431;-68
2023/03/26 13:20:38;;;;;;;0.20;0.20;;;;;;;;;;5031970;28;20435;-68
2023/03/26 13:23:13;;;;;;;0.13;0.13;;;;;;;;;;5031362;28;20434;-68
2023/03/26 13:25:58;;;;;;;0.20;0.20;;;;;;;;;;5029413;28;20536;-68
2023/03/26 13:28:40;;;;;;;0.10;0.10;;;;;;;;;;5030392;28;21032;-68
2023/03/26 13:31:08;;;;;;;0.10;0.10;;;;;;;;;;5028699;28;20435;-68
2023/03/26 13:33:39;;;;;;;0.20;0.20;;;;;;;;;;5031707;28;20437;-68
2023/03/26 13:36:10;;;;;;;0.10;0.10;;;;;;;;;;5029326;28;20434;-68
2023/03/26 13:39:03;;;;;;;0.10;0.10;;;;;;;;;;5031060;28;20442;-68
2023/03/26 13:41:37;;;;;;;0.20;0.20;;;;;;;;;;5028035;28;20518;-68
2023/03/26 13:44:13;;;;;;;0.10;0.10;;;;;;;;;;5011452;28;20432;-67
2023/03/26 13:46:48;;;;;;;0.20;0.20;;;;;;;;;;5011840;28;20483;-67
2023/03/26 13:49:19;;;;;;;0.10;0.10;;;;;;;;;;5023666;28;20805;-67
2023/03/26 13:52:05;;;;;;;0.20;0.20;;;;;;;;;;5031512;28;20430;-67
2023/03/26 13:54:36;;;;;;;0.10;0.10;;;;;;;;;;5029590;28;20534;-67
2023/03/26 13:57:06;;;;;;;0.20;0.20;;;;;;;;;;5029439;28;20529;-67
2023/03/26 13:59:40;;;;;;;0.10;0.10;;;;;;;;;;5031464;28;20477;-67
2023/03/26 14:02:13;;;;;;;0.10;0.10;;;;;;;;;;5029138;28;20434;-68
2023/03/26 14:04:47;;;;;;;0.20;0.20;;;;;;;;;;5030885;28;20426;-68
2023/03/26 14:07:19;;;;;;;1.30;0.90;;;;;;;;;;5031150;28;20869;-68
2023/03/26 14:09:51;;;;;;;0.23;0.23;;;;;;;;;;5031078;28;20450;-67
2023/03/26 14:12:48;;;;;;;0.20;0.20;;;;;;;;;;5029293;28;20470;-68
2023/03/26 14:15:17;;;;;;;0.68;0.28;;;;;;;;;;5027602;28;20510;-67
2023/03/26 14:17:49;;;;;;;0.20;0.20;;;;;;;;;;5026111;28;20481;-67
2023/03/26 14:20:31;;;;;;;0.20;0.20;;;;;;;;;;5028069;28;20818;-67
2023/03/26 14:23:07;;;;;;;0.20;0.20;;;;;;;;;;5027740;28;20869;-67
2023/03/26 14:25:42;;;;;;;0.20;0.20;;;;;;;;;;5027478;28;21022;-67
2023/03/26 14:28:18;;;;;;;0.20;0.20;;;;;;;;;;5026167;28;20426;-67
2023/03/26 14:31:06;;;;;;;0.20;0.20;;;;;;;;;;5027961;28;20435;-67
2023/03/26 14:33:54;;;;;;;0.30;0.30;;;;;;;;;;5019518;28;20430;-67
2023/03/26 14:36:30;;;;;;;0.13;0.13;;;;;;;;;;5020810;28;20936;-67
2023/03/26 14:39:10;;;;;;;2.00;0.20;;;;;;;;;;5027734;28;20533;-67
2023/03/26 14:41:46;;;;;;;0.20;0.20;;;;;;;;;;5027772;28;20997;-68
2023/03/26 14:44:32;;;;;;;0.20;0.20;;;;;;;;;;5024486;28;20433;-67
2023/03/26 14:47:20;;;;;;;0.20;0.20;;;;;;;;;;5027162;28;20431;-67
2023/03/26 14:50:07;;;;;;;0.30;0.30;;;;;;;;;;5025437;28;20443;-67
2023/03/26 14:52:48;;;;;;;0.30;0.22;;;;;;;;;;5015197;28;20512;-67
2023/03/26 14:55:28;;;;;;;0.20;0.20;;;;;;;;;;5009872;28;20902;-67
2023/03/26 14:58:00;;;;;;;0.40;0.40;;;16.10;99.90;;;;;;5010327;28;20513;-67
2023/03/26 15:00:43;;;;;;;0.30;0.30;;;;;;;;;;5018073;28;20438;-67
2023/03/26 15:03:33;;;;;;;0.30;0.30;;;15.90;99.90;;;;;;5030123;28;20435;-67
2023/03/26 15:06:00;;;;;;;0.25;0.20;;;;;;;;;;5018918;28;20431;-67
2023/03/26 15:08:30;;;;;;;2.47;0.40;;;;;;;;;;5026962;28;20837;-67
2023/03/26 15:11:25;;;;;;;0.10;0.10;;;;;;;;;;5029740;28;20435;-66
2023/03/26 15:14:11;;;;;;;0.25;0.25;;;;;;;;;;5029459;28;20789;-67
2023/03/26 15:16:50;;;;;;;2.20;0.20;;;;;;;;;;5027836;28;20437;-67
2023/03/26 15:19:33;;;;;;;3.20;0.30;;;;;;;;;;5028613;28;20454;-67
2023/03/26 15:22:03;;;;;;;0.30;0.30;;;;;;;;;;5026489;28;20466;-67
2023/03/26 15:24:53;;;;;;;0.20;0.20;;;;;;;;;;5029391;28;20435;-67